sensor_id;sensor_type;location;lat;lon;timestamp;P1;durP1;ratioP1;P2;durP2;ratioP2
22829;SDS011;11581;51.250;6.778;2023-03-21T00:01:00;8.05;;;2.63;;
22829;SDS011;11581;51.250;6.778;2023-03-21T00:03:28;7.47;;;2.95;;
22829;SDS011;11581;51.250;6.778;2023-03-21T00:05:55;11.20;;;2.97;;
22829;SDS011;11581;51.250;6.778;2023-03-21T00:08:22;8.63;;;2.70;;
22829;SDS011;11581;51.250;6.778;2023-03-21T00:10:57;8.52;;;2.85;;
22829;SDS011;11581;51.250;6.778;2023-03-21T00:15:52;6.18;;;2.53;;
22829;SDS011;11581;51.250;6.778;2023-03-21T00:18:20;11.63;;;3.85;;
22829;SDS011;11581;51.250;6.778;2023-03-21T00:20:57;9.93;;;3.25;;
22829;SDS011;11581;51.250;6.778;2023-03-21T00:23:25;7.60;;;3.05;;
22829;SDS011;11581;51.250;6.778;2023-03-21T00:25:52;7.63;;;2.88;;
22829;SDS011;11581;51.250;6.778;2023-03-21T00:28:19;6.03;;;2.67;;
22829;SDS011;11581;51.250;6.778;2023-03-21T00:30:47;7.75;;;2.80;;
22829;SDS011;11581;51.250;6.778;2023-03-21T00:33:13;9.25;;;3.25;;
22829;SDS011;11581;51.250;6.778;2023-03-21T00:35:40;9.45;;;3.65;;
22829;SDS011;11581;51.250;6.778;2023-03-21T00:38:09;9.40;;;3.08;;
22829;SDS011;11581;51.250;6.778;2023-03-21T00:40:36;7.50;;;2.78;;
22829;SDS011;11581;51.250;6.778;2023-03-21T00:43:02;6.65;;;2.78;;
22829;SDS011;11581;51.250;6.778;2023-03-21T00:45:29;9.43;;;2.78;;
22829;SDS011;11581;51.250;6.778;2023-03-21T00:47:56;7.50;;;2.88;;
22829;SDS011;11581;51.250;6.778;2023-03-21T00:50:22;8.35;;;3.08;;
22829;SDS011;11581;51.250;6.778;2023-03-21T00:52:49;8.15;;;2.65;;
22829;SDS011;11581;51.250;6.778;2023-03-21T00:55:16;6.57;;;2.95;;
22829;SDS011;11581;51.250;6.778;2023-03-21T00:57:44;8.65;;;2.70;;
22829;SDS011;11581;51.250;6.778;2023-03-21T01:00:11;9.05;;;3.65;;
22829;SDS011;11581;51.250;6.778;2023-03-21T01:02:39;9.00;;;3.38;;
22829;SDS011;11581;51.250;6.778;2023-03-21T01:05:24;9.13;;;3.45;;
22829;SDS011;11581;51.250;6.778;2023-03-21T01:08:07;7.85;;;2.92;;
22829;SDS011;11581;51.250;6.778;2023-03-21T01:10:36;9.98;;;3.10;;
22829;SDS011;11581;51.250;6.778;2023-03-21T01:13:07;7.80;;;2.85;;
22829;SDS011;11581;51.250;6.778;2023-03-21T01:15:35;8.95;;;3.10;;
22829;SDS011;11581;51.250;6.778;2023-03-21T01:18:02;10.65;;;3.70;;
22829;SDS011;11581;51.250;6.778;2023-03-21T01:20:29;10.55;;;3.72;;
22829;SDS011;11581;51.250;6.778;2023-03-21T01:22:55;8.13;;;3.10;;
22829;SDS011;11581;51.250;6.778;2023-03-21T01:25:21;12.25;;;3.88;;
22829;SDS011;11581;51.250;6.778;2023-03-21T01:27:48;11.73;;;3.42;;
22829;SDS011;11581;51.250;6.778;2023-03-21T01:30:15;10.10;;;3.22;;
22829;SDS011;11581;51.250;6.778;2023-03-21T01:32:42;10.55;;;3.58;;
22829;SDS011;11581;51.250;6.778;2023-03-21T01:35:10;8.77;;;3.95;;
22829;SDS011;11581;51.250;6.778;2023-03-21T01:37:36;8.07;;;3.15;;
22829;SDS011;11581;51.250;6.778;2023-03-21T01:40:03;9.60;;;3.30;;
22829;SDS011;11581;51.250;6.778;2023-03-21T01:42:31;11.75;;;3.42;;
22829;SDS011;11581;51.250;6.778;2023-03-21T01:45:02;6.35;;;3.17;;
22829;SDS011;11581;51.250;6.778;2023-03-21T01:47:49;11.77;;;3.70;;
22829;SDS011;11581;51.250;6.778;2023-03-21T01:50:20;6.75;;;3.50;;
22829;SDS011;11581;51.250;6.778;2023-03-21T01:53:13;9.57;;;3.53;;
22829;SDS011;11581;51.250;6.778;2023-03-21T01:55:41;8.82;;;3.78;;
22829;SDS011;11581;51.250;6.778;2023-03-21T01:58:40;8.95;;;3.33;;
22829;SDS011;11581;51.250;6.778;2023-03-21T02:01:34;11.40;;;3.83;;
22829;SDS011;11581;51.250;6.778;2023-03-21T02:04:02;10.07;;;3.97;;
22829;SDS011;11581;51.250;6.778;2023-03-21T02:06:50;10.13;;;3.83;;
22829;SDS011;11581;51.250;6.778;2023-03-21T02:09:29;8.93;;;4.00;;
22829;SDS011;11581;51.250;6.778;2023-03-21T02:11:59;15.23;;;4.68;;
22829;SDS011;11581;51.250;6.778;2023-03-21T02:14:29;10.52;;;3.70;;
22829;SDS011;11581;51.250;6.778;2023-03-21T02:17:04;9.50;;;3.40;;
22829;SDS011;11581;51.250;6.778;2023-03-21T02:42:10;10.77;;;4.18;;
22829;SDS011;11581;51.250;6.778;2023-03-21T02:47:36;9.43;;;3.65;;
22829;SDS011;11581;51.250;6.778;2023-03-21T02:50:15;8.85;;;3.88;;
22829;SDS011;11581;51.250;6.778;2023-03-21T02:52:47;7.88;;;4.15;;
22829;SDS011;11581;51.250;6.778;2023-03-21T02:55:19;9.20;;;3.53;;
22829;SDS011;11581;51.250;6.778;2023-03-21T02:57:57;6.32;;;3.35;;
22829;SDS011;11581;51.250;6.778;2023-03-21T03:00:29;9.52;;;3.88;;
22829;SDS011;11581;51.250;6.778;2023-03-21T03:02:59;7.57;;;3.50;;
22829;SDS011;11581;51.250;6.778;2023-03-21T03:05:27;8.07;;;3.15;;
22829;SDS011;11581;51.250;6.778;2023-03-21T03:11:01;9.52;;;3.63;;
22829;SDS011;11581;51.250;6.778;2023-03-21T03:16:38;8.10;;;3.40;;
22829;SDS011;11581;51.250;6.778;2023-03-21T03:19:30;8.23;;;4.05;;
22829;SDS011;11581;51.250;6.778;2023-03-21T03:25:08;7.95;;;3.40;;
22829;SDS011;11581;51.250;6.778;2023-03-21T03:27:40;9.00;;;3.58;;
22829;SDS011;11581;51.250;6.778;2023-03-21T03:30:08;11.57;;;4.35;;
22829;SDS011;11581;51.250;6.778;2023-03-21T03:32:39;6.55;;;3.53;;
22829;SDS011;11581;51.250;6.778;2023-03-21T03:35:12;8.23;;;3.80;;
22829;SDS011;11581;51.250;6.778;2023-03-21T03:37:41;16.50;;;4.32;;
22829;SDS011;11581;51.250;6.778;2023-03-21T03:43:05;9.38;;;3.30;;
22829;SDS011;11581;51.250;6.778;2023-03-21T03:45:57;10.23;;;3.58;;
22829;SDS011;11581;51.250;6.778;2023-03-21T03:48:34;6.93;;;2.95;;
22829;SDS011;11581;51.250;6.778;2023-03-21T03:51:31;9.90;;;3.67;;
22829;SDS011;11581;51.250;6.778;2023-03-21T03:54:35;8.05;;;3.28;;
22829;SDS011;11581;51.250;6.778;2023-03-21T03:57:05;9.30;;;3.63;;
22829;SDS011;11581;51.250;6.778;2023-03-21T03:59:34;9.52;;;3.45;;
22829;SDS011;11581;51.250;6.778;2023-03-21T04:02:17;8.00;;;3.13;;
22829;SDS011;11581;51.250;6.778;2023-03-21T04:04:44;12.07;;;3.80;;
22829;SDS011;11581;51.250;6.778;2023-03-21T04:07:12;7.70;;;3.13;;
22829;SDS011;11581;51.250;6.778;2023-03-21T04:09:40;8.57;;;3.13;;
22829;SDS011;11581;51.250;6.778;2023-03-21T04:12:06;11.73;;;4.10;;
22829;SDS011;11581;51.250;6.778;2023-03-21T04:14:34;11.02;;;3.53;;
22829;SDS011;11581;51.250;6.778;2023-03-21T04:17:02;11.30;;;3.97;;
22829;SDS011;11581;51.250;6.778;2023-03-21T04:19:30;9.98;;;3.45;;
22829;SDS011;11581;51.250;6.778;2023-03-21T04:21:57;9.18;;;3.13;;
22829;SDS011;11581;51.250;6.778;2023-03-21T04:24:25;9.70;;;3.40;;
22829;SDS011;11581;51.250;6.778;2023-03-21T04:26:52;10.13;;;3.63;;
22829;SDS011;11581;51.250;6.778;2023-03-21T04:29:31;8.35;;;3.47;;
22829;SDS011;11581;51.250;6.778;2023-03-21T04:31:58;11.68;;;4.78;;
22829;SDS011;11581;51.250;6.778;2023-03-21T04:34:25;14.50;;;4.38;;
22829;SDS011;11581;51.250;6.778;2023-03-21T04:36:55;10.65;;;3.70;;
22829;SDS011;11581;51.250;6.778;2023-03-21T04:39:22;17.55;;;3.42;;
22829;SDS011;11581;51.250;6.778;2023-03-21T04:41:49;11.77;;;3.92;;
22829;SDS011;11581;51.250;6.778;2023-03-21T04:44:16;8.23;;;3.35;;
22829;SDS011;11581;51.250;6.778;2023-03-21T04:46:44;9.10;;;3.47;;
22829;SDS011;11581;51.250;6.778;2023-03-21T04:49:11;12.23;;;3.25;;
22829;SDS011;11581;51.250;6.778;2023-03-21T04:51:38;9.55;;;3.15;;
22829;SDS011;11581;51.250;6.778;2023-03-21T04:54:08;10.27;;;3.78;;
22829;SDS011;11581;51.250;6.778;2023-03-21T04:56:37;11.40;;;4.30;;
22829;SDS011;11581;51.250;6.778;2023-03-21T04:59:06;10.23;;;3.92;;
22829;SDS011;11581;51.250;6.778;2023-03-21T05:01:35;7.13;;;3.33;;
22829;SDS011;11581;51.250;6.778;2023-03-21T05:04:02;9.75;;;3.70;;
22829;SDS011;11581;51.250;6.778;2023-03-21T05:06:32;11.27;;;4.38;;
22829;SDS011;11581;51.250;6.778;2023-03-21T05:08:59;6.75;;;3.55;;
22829;SDS011;11581;51.250;6.778;2023-03-21T05:11:30;8.40;;;3.63;;
22829;SDS011;11581;51.250;6.778;2023-03-21T05:14:00;5.72;;;3.20;;
22829;SDS011;11581;51.250;6.778;2023-03-21T05:16:26;10.65;;;3.97;;
22829;SDS011;11581;51.250;6.778;2023-03-21T05:18:55;6.38;;;3.70;;
22829;SDS011;11581;51.250;6.778;2023-03-21T05:21:23;11.93;;;3.40;;
22829;SDS011;11581;51.250;6.778;2023-03-21T05:23:55;8.57;;;3.63;;
22829;SDS011;11581;51.250;6.778;2023-03-21T05:26:22;7.97;;;3.30;;
22829;SDS011;11581;51.250;6.778;2023-03-21T05:28:57;8.35;;;3.38;;
22829;SDS011;11581;51.250;6.778;2023-03-21T05:31:24;8.55;;;3.70;;
22829;SDS011;11581;51.250;6.778;2023-03-21T05:34:00;8.85;;;3.60;;
22829;SDS011;11581;51.250;6.778;2023-03-21T05:36:28;7.60;;;3.50;;
22829;SDS011;11581;51.250;6.778;2023-03-21T05:38:59;10.63;;;3.83;;
22829;SDS011;11581;51.250;6.778;2023-03-21T05:41:26;8.52;;;3.28;;
22829;SDS011;11581;51.250;6.778;2023-03-21T05:43:52;8.88;;;3.67;;
22829;SDS011;11581;51.250;6.778;2023-03-21T05:46:20;12.48;;;4.00;;
22829;SDS011;11581;51.250;6.778;2023-03-21T05:48:46;8.02;;;3.75;;
22829;SDS011;11581;51.250;6.778;2023-03-21T05:51:15;9.50;;;3.85;;
22829;SDS011;11581;51.250;6.778;2023-03-21T05:53:41;7.35;;;3.88;;
22829;SDS011;11581;51.250;6.778;2023-03-21T05:56:10;11.52;;;3.80;;
22829;SDS011;11581;51.250;6.778;2023-03-21T05:58:46;7.18;;;4.13;;
22829;SDS011;11581;51.250;6.778;2023-03-21T06:01:13;6.38;;;3.80;;
22829;SDS011;11581;51.250;6.778;2023-03-21T06:03:45;8.73;;;3.95;;
22829;SDS011;11581;51.250;6.778;2023-03-21T06:06:15;13.38;;;4.13;;
22829;SDS011;11581;51.250;6.778;2023-03-21T06:08:50;10.27;;;4.63;;
22829;SDS011;11581;51.250;6.778;2023-03-21T06:11:25;8.93;;;3.90;;
22829;SDS011;11581;51.250;6.778;2023-03-21T06:14:10;12.82;;;4.25;;
22829;SDS011;11581;51.250;6.778;2023-03-21T06:16:37;11.30;;;3.92;;
22829;SDS011;11581;51.250;6.778;2023-03-21T06:19:03;9.10;;;3.80;;
22829;SDS011;11581;51.250;6.778;2023-03-21T06:21:59;9.00;;;3.60;;
22829;SDS011;11581;51.250;6.778;2023-03-21T06:24:26;7.45;;;3.10;;
22829;SDS011;11581;51.250;6.778;2023-03-21T06:26:52;11.07;;;4.38;;
22829;SDS011;11581;51.250;6.778;2023-03-21T06:29:19;8.02;;;3.92;;
22829;SDS011;11581;51.250;6.778;2023-03-21T06:31:47;10.52;;;3.67;;
22829;SDS011;11581;51.250;6.778;2023-03-21T06:34:14;8.80;;;3.60;;
22829;SDS011;11581;51.250;6.778;2023-03-21T06:36:41;8.70;;;3.90;;
22829;SDS011;11581;51.250;6.778;2023-03-21T06:39:09;9.18;;;3.85;;
22829;SDS011;11581;51.250;6.778;2023-03-21T06:41:38;10.93;;;3.88;;
22829;SDS011;11581;51.250;6.778;2023-03-21T06:44:05;9.88;;;4.05;;
22829;SDS011;11581;51.250;6.778;2023-03-21T06:46:39;8.88;;;4.15;;
22829;SDS011;11581;51.250;6.778;2023-03-21T06:49:05;7.93;;;3.95;;
22829;SDS011;11581;51.250;6.778;2023-03-21T06:51:32;10.50;;;4.07;;
22829;SDS011;11581;51.250;6.778;2023-03-21T06:54:13;7.03;;;3.50;;
22829;SDS011;11581;51.250;6.778;2023-03-21T06:56:47;10.18;;;3.97;;
22829;SDS011;11581;51.250;6.778;2023-03-21T06:59:21;8.32;;;3.83;;
22829;SDS011;11581;51.250;6.778;2023-03-21T07:02:00;11.23;;;3.67;;
22829;SDS011;11581;51.250;6.778;2023-03-21T07:04:28;8.70;;;3.63;;
22829;SDS011;11581;51.250;6.778;2023-03-21T07:06:56;11.73;;;4.53;;
22829;SDS011;11581;51.250;6.778;2023-03-21T07:09:24;10.48;;;3.58;;
22829;SDS011;11581;51.250;6.778;2023-03-21T07:11:54;8.52;;;3.88;;
22829;SDS011;11581;51.250;6.778;2023-03-21T07:14:26;11.13;;;3.63;;
22829;SDS011;11581;51.250;6.778;2023-03-21T07:16:54;9.82;;;3.72;;
22829;SDS011;11581;51.250;6.778;2023-03-21T07:19:20;7.68;;;3.78;;
22829;SDS011;11581;51.250;6.778;2023-03-21T07:21:47;8.40;;;3.58;;
22829;SDS011;11581;51.250;6.778;2023-03-21T07:24:13;9.63;;;4.30;;
22829;SDS011;11581;51.250;6.778;2023-03-21T07:26:40;9.48;;;3.30;;
22829;SDS011;11581;51.250;6.778;2023-03-21T07:29:06;8.73;;;3.97;;
22829;SDS011;11581;51.250;6.778;2023-03-21T07:31:33;10.02;;;3.50;;
22829;SDS011;11581;51.250;6.778;2023-03-21T07:34:00;7.57;;;3.42;;
22829;SDS011;11581;51.250;6.778;2023-03-21T07:36:27;8.80;;;3.22;;
22829;SDS011;11581;51.250;6.778;2023-03-21T07:38:53;10.52;;;4.00;;
22829;SDS011;11581;51.250;6.778;2023-03-21T07:41:22;10.52;;;3.72;;
22829;SDS011;11581;51.250;6.778;2023-03-21T07:43:49;9.30;;;3.08;;
22829;SDS011;11581;51.250;6.778;2023-03-21T07:46:17;8.82;;;3.20;;
22829;SDS011;11581;51.250;6.778;2023-03-21T07:48:46;6.70;;;3.17;;
22829;SDS011;11581;51.250;6.778;2023-03-21T07:51:13;12.23;;;4.00;;
22829;SDS011;11581;51.250;6.778;2023-03-21T07:53:39;12.43;;;3.78;;
22829;SDS011;11581;51.250;6.778;2023-03-21T07:56:08;8.70;;;3.78;;
22829;SDS011;11581;51.250;6.778;2023-03-21T07:58:34;12.98;;;4.55;;
22829;SDS011;11581;51.250;6.778;2023-03-21T08:01:01;8.55;;;3.78;;
22829;SDS011;11581;51.250;6.778;2023-03-21T08:03:27;9.70;;;3.42;;
22829;SDS011;11581;51.250;6.778;2023-03-21T08:05:57;8.70;;;3.35;;
22829;SDS011;11581;51.250;6.778;2023-03-21T08:08:24;8.68;;;4.00;;
22829;SDS011;11581;51.250;6.778;2023-03-21T08:10:51;10.77;;;3.95;;
22829;SDS011;11581;51.250;6.778;2023-03-21T08:13:17;10.05;;;3.80;;
22829;SDS011;11581;51.250;6.778;2023-03-21T08:15:44;9.75;;;4.75;;
22829;SDS011;11581;51.250;6.778;2023-03-21T08:18:11;8.40;;;3.65;;
22829;SDS011;11581;51.250;6.778;2023-03-21T08:20:37;9.02;;;3.80;;
22829;SDS011;11581;51.250;6.778;2023-03-21T08:23:04;13.82;;;4.90;;
22829;SDS011;11581;51.250;6.778;2023-03-21T08:25:30;8.55;;;3.85;;
22829;SDS011;11581;51.250;6.778;2023-03-21T08:27:57;8.75;;;3.45;;
22829;SDS011;11581;51.250;6.778;2023-03-21T08:30:24;12.07;;;3.85;;
22829;SDS011;11581;51.250;6.778;2023-03-21T08:32:57;7.22;;;3.28;;
22829;SDS011;11581;51.250;6.778;2023-03-21T08:35:24;8.63;;;3.28;;
22829;SDS011;11581;51.250;6.778;2023-03-21T08:37:51;9.70;;;3.78;;
22829;SDS011;11581;51.250;6.778;2023-03-21T08:40:18;6.95;;;3.42;;
22829;SDS011;11581;51.250;6.778;2023-03-21T08:42:45;8.05;;;3.38;;
22829;SDS011;11581;51.250;6.778;2023-03-21T08:45:12;7.70;;;3.35;;
22829;SDS011;11581;51.250;6.778;2023-03-21T08:47:39;7.47;;;3.35;;
22829;SDS011;11581;51.250;6.778;2023-03-21T08:50:07;6.28;;;3.47;;
22829;SDS011;11581;51.250;6.778;2023-03-21T08:52:34;9.00;;;3.75;;
22829;SDS011;11581;51.250;6.778;2023-03-21T08:55:01;10.27;;;3.72;;
22829;SDS011;11581;51.250;6.778;2023-03-21T08:57:28;12.18;;;4.22;;
22829;SDS011;11581;51.250;6.778;2023-03-21T08:59:55;10.70;;;4.35;;
22829;SDS011;11581;51.250;6.778;2023-03-21T09:02:22;7.97;;;4.07;;
22829;SDS011;11581;51.250;6.778;2023-03-21T09:04:48;9.35;;;4.10;;
22829;SDS011;11581;51.250;6.778;2023-03-21T09:07:17;8.23;;;4.53;;
22829;SDS011;11581;51.250;6.778;2023-03-21T09:09:44;11.88;;;4.63;;
22829;SDS011;11581;51.250;6.778;2023-03-21T09:12:11;10.15;;;4.97;;
22829;SDS011;11581;51.250;6.778;2023-03-21T09:14:37;13.18;;;4.63;;
22829;SDS011;11581;51.250;6.778;2023-03-21T09:17:05;13.40;;;5.15;;
22829;SDS011;11581;51.250;6.778;2023-03-21T09:19:31;8.95;;;4.75;;
22829;SDS011;11581;51.250;6.778;2023-03-21T09:21:58;11.48;;;5.07;;
22829;SDS011;11581;51.250;6.778;2023-03-21T09:24:25;13.32;;;5.05;;
22829;SDS011;11581;51.250;6.778;2023-03-21T09:26:52;9.05;;;4.70;;
22829;SDS011;11581;51.250;6.778;2023-03-21T09:29:18;7.88;;;4.35;;
22829;SDS011;11581;51.250;6.778;2023-03-21T09:31:45;11.77;;;5.00;;
22829;SDS011;11581;51.250;6.778;2023-03-21T09:34:12;10.82;;;4.72;;
22829;SDS011;11581;51.250;6.778;2023-03-21T09:36:40;14.85;;;5.40;;
22829;SDS011;11581;51.250;6.778;2023-03-21T09:39:08;9.98;;;4.90;;
22829;SDS011;11581;51.250;6.778;2023-03-21T09:47:20;10.27;;;4.40;;
22829;SDS011;11581;51.250;6.778;2023-03-21T09:55:15;9.45;;;4.05;;
22829;SDS011;11581;51.250;6.778;2023-03-21T09:57:49;8.65;;;3.80;;
22829;SDS011;11581;51.250;6.778;2023-03-21T10:00:32;8.77;;;4.00;;
22829;SDS011;11581;51.250;6.778;2023-03-21T10:03:03;7.70;;;3.65;;
22829;SDS011;11581;51.250;6.778;2023-03-21T10:05:39;10.80;;;3.90;;
22829;SDS011;11581;51.250;6.778;2023-03-21T10:08:12;8.57;;;4.22;;
22829;SDS011;11581;51.250;6.778;2023-03-21T10:10:52;8.73;;;3.58;;
22829;SDS011;11581;51.250;6.778;2023-03-21T10:13:23;10.75;;;4.45;;
22829;SDS011;11581;51.250;6.778;2023-03-21T10:15:56;10.63;;;3.95;;
22829;SDS011;11581;51.250;6.778;2023-03-21T10:18:25;9.40;;;4.30;;
22829;SDS011;11581;51.250;6.778;2023-03-21T10:20:54;10.77;;;4.82;;
22829;SDS011;11581;51.250;6.778;2023-03-21T10:23:23;8.02;;;3.47;;
22829;SDS011;11581;51.250;6.778;2023-03-21T10:25:54;10.23;;;4.07;;
22829;SDS011;11581;51.250;6.778;2023-03-21T10:28:25;8.63;;;3.63;;
22829;SDS011;11581;51.250;6.778;2023-03-21T10:30:54;9.45;;;3.60;;
22829;SDS011;11581;51.250;6.778;2023-03-21T10:33:31;11.95;;;3.95;;
22829;SDS011;11581;51.250;6.778;2023-03-21T10:36:16;7.45;;;3.60;;
22829;SDS011;11581;51.250;6.778;2023-03-21T10:38:51;11.75;;;4.43;;
22829;SDS011;11581;51.250;6.778;2023-03-21T10:41:25;10.95;;;4.40;;
22829;SDS011;11581;51.250;6.778;2023-03-21T10:44:06;7.60;;;3.55;;
22829;SDS011;11581;51.250;6.778;2023-03-21T10:46:35;11.13;;;4.25;;
22829;SDS011;11581;51.250;6.778;2023-03-21T10:49:02;9.60;;;3.80;;
22829;SDS011;11581;51.250;6.778;2023-03-21T10:51:32;8.65;;;4.03;;
22829;SDS011;11581;51.250;6.778;2023-03-21T10:54:12;10.30;;;3.80;;
22829;SDS011;11581;51.250;6.778;2023-03-21T10:56:44;7.95;;;3.55;;
22829;SDS011;11581;51.250;6.778;2023-03-21T10:59:21;9.20;;;3.45;;
22829;SDS011;11581;51.250;6.778;2023-03-21T11:01:49;8.07;;;3.45;;
22829;SDS011;11581;51.250;6.778;2023-03-21T11:04:20;10.68;;;3.92;;
22829;SDS011;11581;51.250;6.778;2023-03-21T11:06:49;8.80;;;3.25;;
22829;SDS011;11581;51.250;6.778;2023-03-21T11:09:20;8.02;;;3.80;;
22829;SDS011;11581;51.250;6.778;2023-03-21T11:14:30;7.75;;;3.38;;
22829;SDS011;11581;51.250;6.778;2023-03-21T11:17:21;9.25;;;3.88;;
22829;SDS011;11581;51.250;6.778;2023-03-21T11:19:48;8.27;;;3.83;;
22829;SDS011;11581;51.250;6.778;2023-03-21T11:22:41;6.55;;;3.25;;
22829;SDS011;11581;51.250;6.778;2023-03-21T11:25:10;9.32;;;3.67;;
22829;SDS011;11581;51.250;6.778;2023-03-21T11:27:48;9.90;;;3.80;;
22829;SDS011;11581;51.250;6.778;2023-03-21T11:30:20;8.98;;;3.30;;
22829;SDS011;11581;51.250;6.778;2023-03-21T11:32:50;12.73;;;3.70;;
22829;SDS011;11581;51.250;6.778;2023-03-21T11:35:21;8.77;;;3.90;;
22829;SDS011;11581;51.250;6.778;2023-03-21T11:37:51;6.63;;;3.28;;
22829;SDS011;11581;51.250;6.778;2023-03-21T11:40:33;7.15;;;3.25;;
22829;SDS011;11581;51.250;6.778;2023-03-21T11:43:02;8.80;;;3.53;;
22829;SDS011;11581;51.250;6.778;2023-03-21T11:46:08;9.07;;;3.00;;
22829;SDS011;11581;51.250;6.778;2023-03-21T11:48:45;5.75;;;3.33;;
22829;SDS011;11581;51.250;6.778;2023-03-21T11:54:16;6.55;;;3.05;;
22829;SDS011;11581;51.250;6.778;2023-03-21T11:56:55;6.47;;;2.80;;
22829;SDS011;11581;51.250;6.778;2023-03-21T12:05:52;8.38;;;3.45;;
22829;SDS011;11581;51.250;6.778;2023-03-21T12:08:28;7.10;;;2.83;;
22829;SDS011;11581;51.250;6.778;2023-03-21T12:19:04;5.45;;;3.08;;
22829;SDS011;11581;51.250;6.778;2023-03-21T12:41:24;4.57;;;2.60;;
22829;SDS011;11581;51.250;6.778;2023-03-21T12:44:10;9.60;;;3.33;;
22829;SDS011;11581;51.250;6.778;2023-03-21T12:52:00;7.65;;;2.80;;
22829;SDS011;11581;51.250;6.778;2023-03-21T12:54:32;6.90;;;2.90;;
22829;SDS011;11581;51.250;6.778;2023-03-21T13:02:22;5.65;;;2.75;;
22829;SDS011;11581;51.250;6.778;2023-03-21T13:08:15;7.32;;;2.28;;
22829;SDS011;11581;51.250;6.778;2023-03-21T13:10:48;6.15;;;2.50;;
22829;SDS011;11581;51.250;6.778;2023-03-21T13:16:18;6.00;;;2.85;;
22829;SDS011;11581;51.250;6.778;2023-03-21T13:26:58;5.60;;;2.60;;
22829;SDS011;11581;51.250;6.778;2023-03-21T13:34:55;4.80;;;2.70;;
22829;SDS011;11581;51.250;6.778;2023-03-21T13:37:24;5.03;;;2.45;;
22829;SDS011;11581;51.250;6.778;2023-03-21T13:39:58;5.38;;;2.40;;
22829;SDS011;11581;51.250;6.778;2023-03-21T13:42:49;5.78;;;2.42;;
22829;SDS011;11581;51.250;6.778;2023-03-21T13:45:25;6.30;;;2.55;;
22829;SDS011;11581;51.250;6.778;2023-03-21T13:48:28;5.00;;;2.15;;
22829;SDS011;11581;51.250;6.778;2023-03-21T13:53:57;4.57;;;2.20;;
22829;SDS011;11581;51.250;6.778;2023-03-21T13:56:26;4.85;;;2.10;;
22829;SDS011;11581;51.250;6.778;2023-03-21T13:58:58;5.05;;;2.17;;
22829;SDS011;11581;51.250;6.778;2023-03-21T14:03:57;4.63;;;2.42;;
22829;SDS011;11581;51.250;6.778;2023-03-21T14:06:37;5.53;;;2.03;;
22829;SDS011;11581;51.250;6.778;2023-03-21T14:09:08;4.60;;;1.90;;
22829;SDS011;11581;51.250;6.778;2023-03-21T14:11:43;4.88;;;2.30;;
22829;SDS011;11581;51.250;6.778;2023-03-21T14:14:12;3.97;;;2.00;;
22829;SDS011;11581;51.250;6.778;2023-03-21T14:16:39;4.15;;;2.10;;
22829;SDS011;11581;51.250;6.778;2023-03-21T14:19:06;4.00;;;2.10;;
22829;SDS011;11581;51.250;6.778;2023-03-21T14:21:36;5.13;;;1.98;;
22829;SDS011;11581;51.250;6.778;2023-03-21T14:24:04;4.93;;;1.95;;
22829;SDS011;11581;51.250;6.778;2023-03-21T14:26:34;6.07;;;2.10;;
22829;SDS011;11581;51.250;6.778;2023-03-21T14:29:03;5.35;;;2.40;;
22829;SDS011;11581;51.250;6.778;2023-03-21T14:31:31;4.18;;;1.90;;
22829;SDS011;11581;51.250;6.778;2023-03-21T14:33:58;3.33;;;1.77;;
22829;SDS011;11581;51.250;6.778;2023-03-21T14:36:28;5.80;;;2.28;;
22829;SDS011;11581;51.250;6.778;2023-03-21T14:39:02;5.78;;;2.28;;
22829;SDS011;11581;51.250;6.778;2023-03-21T14:41:55;3.80;;;1.90;;
22829;SDS011;11581;51.250;6.778;2023-03-21T14:44:36;4.22;;;2.25;;
22829;SDS011;11581;51.250;6.778;2023-03-21T14:47:05;6.07;;;2.80;;
22829;SDS011;11581;51.250;6.778;2023-03-21T14:49:36;6.07;;;2.22;;
22829;SDS011;11581;51.250;6.778;2023-03-21T14:52:04;4.95;;;2.13;;
22829;SDS011;11581;51.250;6.778;2023-03-21T14:54:35;4.53;;;1.80;;
22829;SDS011;11581;51.250;6.778;2023-03-21T14:57:18;9.35;;;2.65;;
22829;SDS011;11581;51.250;6.778;2023-03-21T14:59:51;5.07;;;1.92;;
22829;SDS011;11581;51.250;6.778;2023-03-21T15:04:52;8.32;;;2.97;;
22829;SDS011;11581;51.250;6.778;2023-03-21T15:07:22;4.65;;;1.95;;
22829;SDS011;11581;51.250;6.778;2023-03-21T15:09:55;5.85;;;2.20;;
22829;SDS011;11581;51.250;6.778;2023-03-21T15:12:25;5.32;;;2.40;;
22829;SDS011;11581;51.250;6.778;2023-03-21T15:14:51;5.47;;;2.35;;
22829;SDS011;11581;51.250;6.778;2023-03-21T15:17:19;5.38;;;2.17;;
22829;SDS011;11581;51.250;6.778;2023-03-21T15:19:46;4.03;;;1.95;;
22829;SDS011;11581;51.250;6.778;2023-03-21T15:24:43;5.22;;;2.25;;
22829;SDS011;11581;51.250;6.778;2023-03-21T15:27:15;4.80;;;2.00;;
22829;SDS011;11581;51.250;6.778;2023-03-21T15:29:43;6.60;;;1.85;;
22829;SDS011;11581;51.250;6.778;2023-03-21T15:32:18;4.63;;;2.20;;
22829;SDS011;11581;51.250;6.778;2023-03-21T15:34:48;5.25;;;1.80;;
22829;SDS011;11581;51.250;6.778;2023-03-21T15:37:21;4.05;;;2.00;;
22829;SDS011;11581;51.250;6.778;2023-03-21T15:39:53;3.47;;;1.88;;
22829;SDS011;11581;51.250;6.778;2023-03-21T15:42:36;4.82;;;2.33;;
22829;SDS011;11581;51.250;6.778;2023-03-21T15:45:19;4.38;;;2.33;;
22829;SDS011;11581;51.250;6.778;2023-03-21T15:52:48;3.67;;;1.95;;
22829;SDS011;11581;51.250;6.778;2023-03-21T15:55:22;8.65;;;2.38;;
22829;SDS011;11581;51.250;6.778;2023-03-21T15:58:13;3.50;;;1.80;;
22829;SDS011;11581;51.250;6.778;2023-03-21T16:00:54;7.38;;;2.22;;
22829;SDS011;11581;51.250;6.778;2023-03-21T16:03:30;6.85;;;2.55;;
22829;SDS011;11581;51.250;6.778;2023-03-21T16:06:02;4.72;;;2.33;;
22829;SDS011;11581;51.250;6.778;2023-03-21T16:08:43;6.00;;;2.08;;
22829;SDS011;11581;51.250;6.778;2023-03-21T16:11:19;3.78;;;2.08;;
22829;SDS011;11581;51.250;6.778;2023-03-21T16:13:50;5.55;;;2.42;;
22829;SDS011;11581;51.250;6.778;2023-03-21T16:16:25;3.55;;;1.95;;
22829;SDS011;11581;51.250;6.778;2023-03-21T16:18:55;5.00;;;2.42;;
22829;SDS011;11581;51.250;6.778;2023-03-21T16:21:26;5.30;;;2.53;;
22829;SDS011;11581;51.250;6.778;2023-03-21T16:23:54;4.93;;;2.30;;
22829;SDS011;11581;51.250;6.778;2023-03-21T16:26:22;4.15;;;2.00;;
22829;SDS011;11581;51.250;6.778;2023-03-21T16:28:51;5.10;;;2.38;;
22829;SDS011;11581;51.250;6.778;2023-03-21T16:31:22;6.50;;;2.42;;
22829;SDS011;11581;51.250;6.778;2023-03-21T16:33:53;4.85;;;2.25;;
22829;SDS011;11581;51.250;6.778;2023-03-21T16:38:51;4.72;;;2.20;;
22829;SDS011;11581;51.250;6.778;2023-03-21T16:41:19;7.10;;;2.47;;
22829;SDS011;11581;51.250;6.778;2023-03-21T16:43:47;6.72;;;2.63;;
22829;SDS011;11581;51.250;6.778;2023-03-21T16:46:15;5.05;;;1.92;;
22829;SDS011;11581;51.250;6.778;2023-03-21T16:48:43;7.63;;;2.95;;
22829;SDS011;11581;51.250;6.778;2023-03-21T16:51:11;5.10;;;2.40;;
22829;SDS011;11581;51.250;6.778;2023-03-21T16:53:39;5.57;;;2.58;;
22829;SDS011;11581;51.250;6.778;2023-03-21T16:56:08;5.00;;;2.65;;
22829;SDS011;11581;51.250;6.778;2023-03-21T16:58:40;8.13;;;2.40;;
22829;SDS011;11581;51.250;6.778;2023-03-21T17:01:09;5.60;;;2.20;;
22829;SDS011;11581;51.250;6.778;2023-03-21T17:03:38;6.35;;;2.65;;
22829;SDS011;11581;51.250;6.778;2023-03-21T17:06:05;7.28;;;2.58;;
22829;SDS011;11581;51.250;6.778;2023-03-21T17:08:32;5.53;;;2.45;;
22829;SDS011;11581;51.250;6.778;2023-03-21T17:10:58;6.63;;;2.80;;
22829;SDS011;11581;51.250;6.778;2023-03-21T17:13:25;8.38;;;2.58;;
22829;SDS011;11581;51.250;6.778;2023-03-21T17:15:51;4.90;;;2.47;;
22829;SDS011;11581;51.250;6.778;2023-03-21T17:18:18;5.15;;;2.50;;
22829;SDS011;11581;51.250;6.778;2023-03-21T17:20:44;5.85;;;2.90;;
22829;SDS011;11581;51.250;6.778;2023-03-21T17:23:11;7.00;;;2.97;;
22829;SDS011;11581;51.250;6.778;2023-03-21T17:25:37;5.60;;;2.80;;
22829;SDS011;11581;51.250;6.778;2023-03-21T17:28:04;5.43;;;2.35;;